Time,TemperatureF,DewpointF,PressureIn,WindDirection,WindDirectionDegrees,WindSpeedMPH,WindSpeedGustMPH,Humidity,HourlyPrecipIn,Conditions,Clouds,dailyrainin,SoftwareType,DateUTC
2013-11-08 00:00:00,41.9,37.7,30.05,NNW,344,0.0,0.0,85,0.00,,,0.00,Wunderground v.1.15,2013-11-08 08:00:00,
2013-11-08 00:06:00,40.5,36.9,30.05,NNW,344,0.0,0.0,87,0.00,,,0.00,Wunderground v.1.15,2013-11-08 08:06:00,
2013-11-08 00:10:00,41.6,37.7,30.05,NNW,344,0.0,0.0,86,0.00,,,0.00,Wunderground v.1.15,2013-11-08 08:10:00,
2013-11-08 00:14:00,39.8,36.0,30.05,NNW,344,0.0,0.0,86,0.00,,,0.00,Wunderground v.1.15,2013-11-08 08:14:00,
2013-11-08 00:18:00,41.3,37.4,30.05,NNW,344,0.0,0.0,86,0.00,,,0.00,Wunderground v.1.15,2013-11-08 08:18:00,
2013-11-08 00:22:00,39.5,36.2,30.05,NNW,344,0.0,0.0,88,0.00,,,0.00,Wunderground v.1.15,2013-11-08 08:22:00,
2013-11-08 00:24:00,41.3,37.7,30.05,NNW,344,0.0,0.0,87,0.00,,,0.00,Wunderground v.1.15,2013-11-08 08:24:00,
2013-11-08 00:30:00,41.2,37.3,30.05,NNW,344,0.0,0.0,86,0.00,,,0.00,Wunderground v.1.15,2013-11-08 08:30:00,
2013-11-08 00:34:00,39.3,36.0,30.05,NNW,344,0.0,0.0,88,0.00,,,0.00,Wunderground v.1.15,2013-11-08 08:34:00,
2013-11-08 00:36:00,41.2,37.3,30.05,NNW,344,0.0,0.0,86,0.00,,,0.00,Wunderground v.1.15,2013-11-08 08:36:00,
2013-11-08 00:44:00,41.1,37.2,30.05,NNW,344,0.0,0.0,86,0.00,,,0.00,Wunderground v.1.15,2013-11-08 08:44:00,
2013-11-08 00:46:00,39.3,36.3,30.05,NNW,344,0.0,0.0,89,0.00,,,0.00,Wunderground v.1.15,2013-11-08 08:46:00,
2013-11-08 00:50:00,39.5,36.5,30.05,NNW,344,0.0,0.0,89,0.00,,,0.00,Wunderground v.1.15,2013-11-08 08:50:00,
2013-11-08 00:52:00,39.6,36.9,30.05,NNW,344,0.0,0.0,90,0.00,,,0.00,Wunderground v.1.15,2013-11-08 08:52:00,
2013-11-08 00:54:00,39.8,37.1,30.05,NNW,344,0.0,0.0,90,0.00,,,0.00,Wunderground v.1.15,2013-11-08 08:54:00,
2013-11-08 00:56:00,40.9,37.0,30.05,NNW,344,0.0,0.0,86,0.00,,,0.00,Wunderground v.1.15,2013-11-08 08:56:00,
2013-11-08 01:00:00,40.1,37.4,30.05,NNW,344,0.0,0.0,90,0.00,,,0.00,Wunderground v.1.15,2013-11-08 09:00:00,
2013-11-08 01:04:00,40.6,36.7,30.05,NNW,344,0.0,0.0,86,0.00,,,0.00,Wunderground v.1.15,2013-11-08 09:04:00,
2013-11-08 01:10:00,40.3,36.7,30.05,NNW,344,0.0,0.0,87,0.00,,,0.00,Wunderground v.1.15,2013-11-08 09:10:00,
2013-11-08 01:16:00,39.9,37.2,30.05,NNW,344,0.0,0.0,90,0.00,,,0.00,Wunderground v.1.15,2013-11-08 09:16:00,
2013-11-08 01:18:00,39.6,36.0,30.05,NNW,344,0.0,0.0,87,0.00,,,0.00,Wunderground v.1.15,2013-11-08 09:18:00,
2013-11-08 01:26:00,39.5,36.2,30.05,NNW,344,0.0,0.0,88,0.00,,,0.00,Wunderground v.1.15,2013-11-08 09:26:00,
2013-11-08 01:32:00,39.3,36.3,30.05,NNW,344,0.0,0.0,89,0.00,,,0.00,Wunderground v.1.15,2013-11-08 09:32:00,
2013-11-08 01:34:00,39.3,36.0,30.05,NNW,344,0.0,0.0,88,0.00,,,0.00,Wunderground v.1.15,2013-11-08 09:34:00,
2013-11-08 01:40:00,39.3,36.0,30.05,NNW,344,0.0,0.0,88,0.00,,,0.00,Wunderground v.1.15,2013-11-08 09:40:00,
2013-11-08 01:44:00,39.1,36.1,30.05,NNW,344,0.0,0.0,89,0.00,,,0.00,Wunderground v.1.15,2013-11-08 09:44:00,
2013-11-08 01:46:00,39.3,36.3,30.05,NNW,344,0.0,0.0,89,0.00,,,0.00,Wunderground v.1.15,2013-11-08 09:46:00,
2013-11-08 01:50:00,39.1,36.4,30.05,NNW,344,0.0,0.0,90,0.00,,,0.00,Wunderground v.1.15,2013-11-08 09:50:00,
2013-11-08 02:00:00,40.1,37.4,30.05,NNW,344,0.0,0.0,90,0.00,,,0.00,Wunderground v.1.15,2013-11-08 10:00:00,
2013-11-08 02:06:00,39.9,37.2,30.05,NNW,344,0.0,0.0,90,0.00,,,0.00,Wunderground v.1.15,2013-11-08 10:06:00,
2013-11-08 02:14:00,39.8,37.1,30.05,NNW,344,0.0,0.0,90,0.00,,,0.00,Wunderground v.1.15,2013-11-08 10:14:00,
2013-11-08 02:20:00,39.9,37.2,30.05,NNW,344,0.0,0.0,90,0.00,,,0.00,Wunderground v.1.15,2013-11-08 10:20:00,
2013-11-08 02:26:00,39.6,36.6,30.05,NNW,344,0.0,0.0,89,0.00,,,0.00,Wunderground v.1.15,2013-11-08 10:26:00,
2013-11-08 02:32:00,39.5,36.5,30.05,NNW,344,0.0,0.0,89,0.00,,,0.00,Wunderground v.1.15,2013-11-08 10:32:00,
2013-11-08 02:38:00,39.3,36.3,30.05,NNW,344,0.0,0.0,89,0.00,,,0.00,Wunderground v.1.15,2013-11-08 10:38:00,
2013-11-08 02:44:00,39.1,36.1,30.05,NNW,344,0.0,0.0,89,0.00,,,0.00,Wunderground v.1.15,2013-11-08 10:44:00,
2013-11-08 02:50:00,39.1,36.4,30.05,NNW,344,0.0,0.0,90,0.00,,,0.00,Wunderground v.1.15,2013-11-08 10:50:00,
2013-11-08 02:56:00,38.9,36.2,30.05,NNW,344,0.0,0.0,90,0.00,,,0.00,Wunderground v.1.15,2013-11-08 10:56:00,
2013-11-08 03:02:00,38.8,36.1,30.05,NNW,344,0.0,0.0,90,0.00,,,0.00,Wunderground v.1.15,2013-11-08 11:02:00,
2013-11-08 03:08:00,38.6,35.9,30.05,NNW,344,0.0,0.0,90,0.00,,,0.00,Wunderground v.1.15,2013-11-08 11:08:00,
2013-11-08 03:14:00,38.5,35.8,30.05,NNW,344,0.0,0.0,90,0.00,,,0.00,Wunderground v.1.15,2013-11-08 11:14:00,
2013-11-08 03:20:00,38.5,35.8,30.05,NNW,344,0.0,0.0,90,0.00,,,0.00,Wunderground v.1.15,2013-11-08 11:20:00,
2013-11-08 03:26:00,38.3,35.9,30.04,NNW,344,0.0,0.0,91,0.00,,,0.00,Wunderground v.1.15,2013-11-08 11:26:00,
2013-11-08 03:32:00,38.3,35.9,30.04,NNW,344,0.0,0.0,91,0.00,,,0.00,Wunderground v.1.15,2013-11-08 11:32:00,
2013-11-08 03:38:00,38.3,35.9,30.04,NNW,344,0.0,0.0,91,0.00,,,0.00,Wunderground v.1.15,2013-11-08 11:38:00,
2013-11-08 03:44:00,38.0,35.6,30.04,NNW,344,0.0,0.0,91,0.00,,,0.00,Wunderground v.1.15,2013-11-08 11:44:00,
2013-11-08 03:50:00,38.0,35.6,30.04,NNW,344,0.0,0.0,91,0.00,,,0.00,Wunderground v.1.15,2013-11-08 11:50:00,
2013-11-08 03:56:00,37.8,35.4,30.04,NNW,344,0.0,0.0,91,0.00,,,0.00,Wunderground v.1.15,2013-11-08 11:56:00,
2013-11-08 04:02:00,38.0,35.9,30.04,NNW,344,0.0,0.0,92,0.00,,,0.00,Wunderground v.1.15,2013-11-08 12:02:00,
2013-11-08 04:08:00,38.0,35.6,30.04,NNW,344,0.0,0.0,91,0.00,,,0.00,Wunderground v.1.15,2013-11-08 12:08:00,
2013-11-08 04:14:00,37.9,35.5,30.04,NNW,344,0.0,0.0,91,0.00,,,0.00,Wunderground v.1.15,2013-11-08 12:14:00,
2013-11-08 04:20:00,38.0,35.9,30.04,NNW,344,0.0,0.0,92,0.00,,,0.00,Wunderground v.1.15,2013-11-08 12:20:00,
2013-11-08 04:26:00,37.9,35.5,30.04,NNW,344,0.0,0.0,91,0.00,,,0.00,Wunderground v.1.15,2013-11-08 12:26:00,
2013-11-08 04:32:00,37.6,35.2,30.04,NNW,344,0.0,0.0,91,0.00,,,0.00,Wunderground v.1.15,2013-11-08 12:32:00,
2013-11-08 04:38:00,37.3,34.9,30.04,NNW,344,0.0,0.0,91,0.00,,,0.00,Wunderground v.1.15,2013-11-08 12:38:00,
2013-11-08 04:44:00,37.5,35.4,30.04,NNW,344,0.0,0.0,92,0.00,,,0.00,Wunderground v.1.15,2013-11-08 12:44:00,
2013-11-08 04:50:00,37.6,35.2,30.04,NNW,344,0.0,0.0,91,0.00,,,0.00,Wunderground v.1.15,2013-11-08 12:50:00,
2013-11-08 04:56:00,37.6,35.5,30.04,NNW,344,0.0,0.0,92,0.00,,,0.00,Wunderground v.1.15,2013-11-08 12:56:00,
2013-11-08 05:02:00,37.5,35.1,30.04,NNW,344,0.0,0.0,91,0.00,,,0.00,Wunderground v.1.15,2013-11-08 13:02:00,
2013-11-08 05:08:00,37.3,34.9,30.04,NNW,344,0.0,0.0,91,0.00,,,0.00,Wunderground v.1.15,2013-11-08 13:08:00,
2013-11-08 05:14:00,37.3,34.9,30.04,NNW,344,0.0,0.0,91,0.00,,,0.00,Wunderground v.1.15,2013-11-08 13:14:00,
2013-11-08 05:20:00,37.2,34.8,30.04,NNW,344,0.0,0.0,91,0.00,,,0.00,Wunderground v.1.15,2013-11-08 13:20:00,
2013-11-08 05:26:00,37.0,34.9,30.04,NNW,344,0.0,0.0,92,0.00,,,0.00,Wunderground v.1.15,2013-11-08 13:26:00,
2013-11-08 05:32:00,37.2,35.1,30.04,NNW,344,0.0,0.0,92,0.00,,,0.00,Wunderground v.1.15,2013-11-08 13:32:00,
2013-11-08 05:38:00,37.2,35.1,30.04,NNW,344,0.0,0.0,92,0.00,,,0.00,Wunderground v.1.15,2013-11-08 13:38:00,
2013-11-08 05:44:00,37.3,35.2,30.04,NNW,344,0.0,0.0,92,0.00,,,0.00,Wunderground v.1.15,2013-11-08 13:44:00,
2013-11-08 05:50:00,37.2,35.1,30.04,NNW,344,0.0,0.0,92,0.00,,,0.00,Wunderground v.1.15,2013-11-08 13:50:00,
2013-11-08 05:56:00,37.0,34.9,30.04,NNW,344,0.0,0.0,92,0.00,,,0.00,Wunderground v.1.15,2013-11-08 13:56:00,
2013-11-08 06:02:00,36.9,34.8,30.05,NNW,344,0.0,0.0,92,0.00,,,0.00,Wunderground v.1.15,2013-11-08 14:02:00,
2013-11-08 06:08:00,36.9,34.8,30.05,NNW,344,0.0,0.0,92,0.00,,,0.00,Wunderground v.1.15,2013-11-08 14:08:00,
2013-11-08 06:14:00,36.9,34.8,30.04,NNW,344,0.0,0.0,92,0.00,,,0.00,Wunderground v.1.15,2013-11-08 14:14:00,
2013-11-08 06:20:00,37.2,35.4,30.04,NNW,344,0.0,0.0,93,0.00,,,0.00,Wunderground v.1.15,2013-11-08 14:20:00,
2013-11-08 06:26:00,37.5,35.7,30.04,NNW,344,0.0,0.0,93,0.00,,,0.00,Wunderground v.1.15,2013-11-08 14:26:00,
2013-11-08 06:32:00,37.3,35.2,30.04,NNW,344,0.0,0.0,92,0.00,,,0.00,Wunderground v.1.15,2013-11-08 14:32:00,
2013-11-08 06:38:00,37.2,35.4,30.05,NNW,344,0.0,0.0,93,0.00,,,0.00,Wunderground v.1.15,2013-11-08 14:38:00,
2013-11-08 06:44:00,37.0,34.9,30.05,NNW,344,0.0,0.0,92,0.00,,,0.00,Wunderground v.1.15,2013-11-08 14:44:00,
2013-11-08 06:50:00,36.9,34.8,30.05,NNW,344,0.0,0.0,92,0.00,,,0.00,Wunderground v.1.15,2013-11-08 14:50:00,
2013-11-08 06:56:00,36.8,34.7,30.05,NNW,344,0.0,0.0,92,0.00,,,0.00,Wunderground v.1.15,2013-11-08 14:56:00,
2013-11-08 07:02:00,36.8,35.0,30.05,NNW,344,0.0,0.0,93,0.00,,,0.00,Wunderground v.1.15,2013-11-08 15:02:00,
2013-11-08 07:08:00,36.9,35.1,30.05,NNW,344,0.0,0.0,93,0.00,,,0.00,Wunderground v.1.15,2013-11-08 15:08:00,
2013-11-08 07:14:00,37.0,35.2,30.05,NNW,344,0.0,0.0,93,0.00,,,0.00,Wunderground v.1.15,2013-11-08 15:14:00,
2013-11-08 07:20:00,37.3,35.5,30.05,NNW,344,0.0,0.0,93,0.00,,,0.00,Wunderground v.1.15,2013-11-08 15:20:00,
2013-11-08 07:26:00,37.3,35.5,30.05,NNW,344,0.0,0.0,93,0.00,,,0.00,Wunderground v.1.15,2013-11-08 15:26:00,
2013-11-08 07:32:00,37.5,35.7,30.05,NNW,344,0.0,0.0,93,0.00,,,0.00,Wunderground v.1.15,2013-11-08 15:32:00,
2013-11-08 07:38:00,38.0,36.4,30.05,NNW,344,0.0,0.0,94,0.00,,,0.00,Wunderground v.1.15,2013-11-08 15:38:00,
2013-11-08 07:44:00,39.1,37.5,30.05,NNW,344,0.0,0.0,94,0.00,,,0.00,Wunderground v.1.15,2013-11-08 15:44:00,
2013-11-08 07:50:00,39.9,38.6,30.05,NNW,344,0.0,0.0,95,0.00,,,0.00,Wunderground v.1.15,2013-11-08 15:50:00,
2013-11-08 07:56:00,40.6,39.3,30.05,NNW,344,0.0,0.0,95,0.00,,,0.00,Wunderground v.1.15,2013-11-08 15:56:00,
2013-11-08 08:02:00,42.1,41.0,30.05,NNW,344,0.0,0.0,96,0.00,,,0.00,Wunderground v.1.15,2013-11-08 16:02:00,
2013-11-08 08:08:00,43.5,42.4,30.05,NNW,344,0.0,0.0,96,0.00,,,0.00,Wunderground v.1.15,2013-11-08 16:08:00,
2013-11-08 08:14:00,44.8,43.7,30.05,NNW,344,0.0,0.0,96,0.00,,,0.00,Wunderground v.1.15,2013-11-08 16:14:00,
2013-11-08 08:20:00,45.8,44.7,30.05,NNW,344,0.0,0.0,96,0.00,,,0.00,Wunderground v.1.15,2013-11-08 16:20:00,
2013-11-08 08:26:00,47.3,46.2,30.05,NNW,344,0.0,0.0,96,0.00,,,0.00,Wunderground v.1.15,2013-11-08 16:26:00,
2013-11-08 08:32:00,49.4,48.6,30.05,NNW,344,0.0,0.0,97,0.00,,,0.00,Wunderground v.1.15,2013-11-08 16:32:00,
2013-11-08 08:38:00,51.6,50.5,30.05,NNW,344,0.0,0.0,96,0.00,,,0.00,Wunderground v.1.15,2013-11-08 16:38:00,
2013-11-08 08:44:00,52.8,50.2,30.05,NNW,344,0.0,0.0,91,0.00,,,0.00,Wunderground v.1.15,2013-11-08 16:44:00,
2013-11-08 08:50:00,54.1,49.1,30.04,NNW,344,0.0,0.0,83,0.00,,,0.00,Wunderground v.1.15,2013-11-08 16:50:00,
2013-11-08 08:56:00,55.0,47.9,30.05,WNW,284,0.0,1.0,77,0.00,,,0.00,Wunderground v.1.15,2013-11-08 16:56:00,
2013-11-08 09:02:00,55.6,47.4,30.05,West,281,0.0,0.0,74,0.00,,,0.00,Wunderground v.1.15,2013-11-08 17:02:00,
2013-11-08 09:08:00,56.5,47.9,30.05,West,281,0.0,0.0,73,0.00,,,0.00,Wunderground v.1.15,2013-11-08 17:08:00,
2013-11-08 09:14:00,57.5,48.2,30.05,West,281,0.0,0.0,71,0.00,,,0.00,Wunderground v.1.15,2013-11-08 17:14:00,
2013-11-08 09:20:00,58.7,47.8,30.04,West,281,0.0,0.0,67,0.00,,,0.00,Wunderground v.1.15,2013-11-08 17:20:00,
2013-11-08 09:26:00,59.6,48.2,30.04,West,281,0.0,0.0,66,0.00,,,0.00,Wunderground v.1.15,2013-11-08 17:26:00,
2013-11-08 09:32:00,60.2,48.0,30.04,West,263,0.0,0.0,64,0.00,,,0.00,Wunderground v.1.15,2013-11-08 17:32:00,
2013-11-08 09:38:00,61.8,48.6,30.04,West,263,0.0,0.0,62,0.00,,,0.00,Wunderground v.1.15,2013-11-08 17:38:00,
2013-11-08 09:44:00,62.6,48.5,30.04,West,259,0.0,0.0,60,0.00,,,0.00,Wunderground v.1.15,2013-11-08 17:44:00,
2013-11-08 09:50:00,62.7,48.6,30.04,WSW,255,1.0,1.0,60,0.00,,,0.00,Wunderground v.1.15,2013-11-08 17:50:00,
2013-11-08 09:56:00,62.9,48.3,30.03,West,261,2.0,4.0,59,0.00,,,0.00,Wunderground v.1.15,2013-11-08 17:56:00,
2013-11-08 10:02:00,63.2,48.6,30.03,West,261,1.0,1.0,59,0.00,,,0.00,Wunderground v.1.15,2013-11-08 18:02:00,
2013-11-08 10:08:00,64.5,48.0,30.03,West,261,0.0,1.0,55,0.00,,,0.00,Wunderground v.1.15,2013-11-08 18:08:00,
2013-11-08 10:14:00,65.8,47.7,30.03,West,261,0.0,0.0,52,0.00,,,0.00,Wunderground v.1.15,2013-11-08 18:14:00,
2013-11-08 10:20:00,66.9,47.6,30.03,East,101,1.0,1.0,50,0.00,,,0.00,Wunderground v.1.15,2013-11-08 18:20:00,
2013-11-08 10:26:00,66.9,47.1,30.03,East,81,1.0,2.0,49,0.00,,,0.00,Wunderground v.1.15,2013-11-08 18:26:00,
2013-11-08 10:32:00,67.6,47.2,30.03,East,81,0.0,0.0,48,0.00,,,0.00,Wunderground v.1.15,2013-11-08 18:32:00,
2013-11-08 10:38:00,68.6,47.0,30.03,East,83,0.0,0.0,46,0.00,,,0.00,Wunderground v.1.15,2013-11-08 18:38:00,
2013-11-08 10:44:00,69.3,47.6,30.02,East,94,0.0,0.0,46,0.00,,,0.00,Wunderground v.1.15,2013-11-08 18:44:00,
2013-11-08 10:50:00,69.6,47.9,30.02,East,94,0.0,1.0,46,0.00,,,0.00,Wunderground v.1.15,2013-11-08 18:50:00,
2013-11-08 10:56:00,70.4,48.6,30.02,East,90,0.0,0.0,46,0.00,,,0.00,Wunderground v.1.15,2013-11-08 18:56:00,
2013-11-08 11:02:00,71.5,48.4,30.02,East,90,0.0,0.0,44,0.00,,,0.00,Wunderground v.1.15,2013-11-08 19:02:00,
2013-11-08 11:08:00,72.5,49.9,30.01,East,92,0.0,0.0,45,0.00,,,0.00,Wunderground v.1.15,2013-11-08 19:08:00,
2013-11-08 11:14:00,72.5,48.1,30.01,East,84,1.0,2.0,42,0.00,,,0.00,Wunderground v.1.15,2013-11-08 19:14:00,
2013-11-08 11:20:00,72.3,47.9,30.01,West,266,1.0,3.0,42,0.00,,,0.00,Wunderground v.1.15,2013-11-08 19:20:00,
2013-11-08 11:26:00,71.5,49.0,30.00,West,265,2.0,3.0,45,0.00,,,0.00,Wunderground v.1.15,2013-11-08 19:26:00,
2013-11-08 11:32:00,72.1,49.0,30.00,SSW,208,1.0,1.0,44,0.00,,,0.00,Wunderground v.1.15,2013-11-08 19:32:00,
2013-11-08 11:38:00,72.8,48.4,30.00,West,277,0.0,4.0,42,0.00,,,0.00,Wunderground v.1.15,2013-11-08 19:38:00,
2013-11-08 11:44:00,73.5,49.0,29.99,NE,39,1.0,1.0,42,0.00,,,0.00,Wunderground v.1.15,2013-11-08 19:44:00,
2013-11-08 11:50:00,74.7,49.4,29.99,NE,44,0.0,1.0,41,0.00,,,0.00,Wunderground v.1.15,2013-11-08 19:50:00,
2013-11-08 11:56:00,75.4,48.7,29.99,WNW,289,1.0,1.0,39,0.00,,,0.00,Wunderground v.1.15,2013-11-08 19:56:00,
2013-11-08 12:02:00,75.6,48.9,29.98,North,5,1.0,1.0,39,0.00,,,0.00,Wunderground v.1.15,2013-11-08 20:02:00,
2013-11-08 12:08:00,75.3,49.3,29.98,WSW,253,1.0,3.0,40,0.00,,,0.00,Wunderground v.1.15,2013-11-08 20:08:00,
2013-11-08 12:14:00,75.4,48.0,29.98,East,100,1.0,1.0,38,0.00,,,0.00,Wunderground v.1.15,2013-11-08 20:14:00,
2013-11-08 12:20:00,75.6,48.2,29.97,ENE,69,1.0,1.0,38,0.00,,,0.00,Wunderground v.1.15,2013-11-08 20:20:00,
2013-11-08 12:26:00,75.4,48.0,29.97,West,261,1.0,3.0,38,0.00,,,0.00,Wunderground v.1.15,2013-11-08 20:26:00,
2013-11-08 12:32:00,75.6,48.2,29.97,SE,136,1.0,1.0,38,0.00,,,0.00,Wunderground v.1.15,2013-11-08 20:32:00,
2013-11-08 12:38:00,75.6,46.8,29.96,West,275,1.0,6.0,36,0.00,,,0.00,Wunderground v.1.15,2013-11-08 20:38:00,
2013-11-08 12:44:00,75.4,46.6,29.96,WSW,257,2.0,3.0,36,0.00,,,0.00,Wunderground v.1.15,2013-11-08 20:44:00,
2013-11-08 12:50:00,75.4,45.8,29.96,WNW,284,2.0,4.0,35,0.00,,,0.00,Wunderground v.1.15,2013-11-08 20:50:00,
2013-11-08 12:56:00,75.3,47.2,29.95,West,260,2.0,5.0,37,0.00,,,0.00,Wunderground v.1.15,2013-11-08 20:56:00,
2013-11-08 13:02:00,75.1,48.4,29.95,SSE,168,3.0,3.0,39,0.00,,,0.00,Wunderground v.1.15,2013-11-08 21:02:00,
2013-11-08 13:08:00,75.3,47.9,29.95,WSW,244,2.0,6.0,38,0.00,,,0.00,Wunderground v.1.15,2013-11-08 21:08:00,
2013-11-08 13:14:00,74.9,48.3,29.95,SW,214,3.0,3.0,39,0.00,,,0.00,Wunderground v.1.15,2013-11-08 21:14:00,
2013-11-08 13:20:00,74.2,49.0,29.94,WNW,284,3.0,5.0,41,0.00,,,0.00,Wunderground v.1.15,2013-11-08 21:20:00,
2013-11-08 13:26:00,73.9,50.0,29.94,WSW,238,5.0,12.0,43,0.00,,,0.00,Wunderground v.1.15,2013-11-08 21:26:00,
2013-11-08 13:32:00,73.0,50.4,29.94,NW,316,6.0,6.0,45,0.00,,,0.00,Wunderground v.1.15,2013-11-08 21:32:00,
2013-11-08 13:38:00,73.5,50.2,29.94,West,277,4.0,6.0,44,0.00,,,0.00,Wunderground v.1.15,2013-11-08 21:38:00,
2013-11-08 13:44:00,73.7,49.2,29.94,SW,230,4.0,5.0,42,0.00,,,0.00,Wunderground v.1.15,2013-11-08 21:44:00,
2013-11-08 13:50:00,72.8,49.0,29.94,West,278,5.0,7.0,43,0.00,,,0.00,Wunderground v.1.15,2013-11-08 21:50:00,
2013-11-08 13:56:00,73.0,49.2,29.94,SSE,156,4.0,10.0,43,0.00,,,0.00,Wunderground v.1.15,2013-11-08 21:56:00,
2013-11-08 14:02:00,73.5,49.0,29.94,SSW,192,3.0,3.0,42,0.00,,,0.00,Wunderground v.1.15,2013-11-08 22:02:00,
2013-11-08 14:08:00,74.2,48.3,29.94,SSW,204,2.0,3.0,40,0.00,,,0.00,Wunderground v.1.15,2013-11-08 22:08:00,
2013-11-08 14:14:00,73.9,49.4,29.94,West,263,3.0,5.0,42,0.00,,,0.00,Wunderground v.1.15,2013-11-08 22:14:00,
2013-11-08 14:20:00,73.7,49.2,29.93,SW,219,3.0,7.0,42,0.00,,,0.00,Wunderground v.1.15,2013-11-08 22:20:00,
2013-11-08 14:26:00,73.5,49.0,29.93,West,263,3.0,4.0,42,0.00,,,0.00,Wunderground v.1.15,2013-11-08 22:26:00,
2013-11-08 14:32:00,73.7,49.2,29.93,ENE,69,2.0,2.0,42,0.00,,,0.00,Wunderground v.1.15,2013-11-08 22:32:00,
2013-11-08 14:38:00,74.6,48.7,29.93,WSW,238,1.0,2.0,40,0.00,,,0.00,Wunderground v.1.15,2013-11-08 22:38:00,
2013-11-08 14:44:00,75.1,47.8,29.93,South,188,0.0,0.0,38,0.00,,,0.00,Wunderground v.1.15,2013-11-08 22:44:00,
2013-11-08 14:50:00,74.0,46.8,29.93,SSE,155,1.0,2.0,38,0.00,,,0.00,Wunderground v.1.15,2013-11-08 22:50:00,
2013-11-08 14:56:00,73.9,46.0,29.93,SSW,208,2.0,3.0,37,0.00,,,0.00,Wunderground v.1.15,2013-11-08 22:56:00,
2013-11-08 15:02:00,74.0,46.1,29.92,East,99,2.0,2.0,37,0.00,,,0.00,Wunderground v.1.15,2013-11-08 23:02:00,
2013-11-08 15:08:00,73.3,46.2,29.93,South,173,2.0,3.0,38,0.00,,,0.00,Wunderground v.1.15,2013-11-08 23:08:00,
2013-11-08 15:14:00,73.7,45.1,29.92,WNW,284,2.0,5.0,36,0.00,,,0.00,Wunderground v.1.15,2013-11-08 23:14:00,
2013-11-08 15:20:00,73.5,45.6,29.92,WNW,299,4.0,7.0,37,0.00,,,0.00,Wunderground v.1.15,2013-11-08 23:20:00,
2013-11-08 15:26:00,73.2,46.1,29.92,SW,225,4.0,5.0,38,0.00,,,0.00,Wunderground v.1.15,2013-11-08 23:26:00,
2013-11-08 15:32:00,73.2,45.4,29.92,WNW,294,3.0,3.0,37,0.00,,,0.00,Wunderground v.1.15,2013-11-08 23:32:00,
2013-11-08 15:38:00,73.2,44.6,29.92,West,268,3.0,3.0,36,0.00,,,0.00,Wunderground v.1.15,2013-11-08 23:38:00,
2013-11-08 15:44:00,72.3,43.1,29.92,SW,231,3.0,4.0,35,0.00,,,0.00,Wunderground v.1.15,2013-11-08 23:44:00,
2013-11-08 15:50:00,72.0,42.8,29.92,West,272,3.0,4.0,35,0.00,,,0.00,Wunderground v.1.15,2013-11-08 23:50:00,
2013-11-08 15:56:00,71.6,43.2,29.92,West,275,2.0,4.0,36,0.00,,,0.00,Wunderground v.1.15,2013-11-08 23:56:00,
2013-11-08 16:02:00,70.6,43.1,29.92,North,349,3.0,5.0,37,0.00,,,0.00,Wunderground v.1.15,2013-11-09 00:02:00,
2013-11-08 16:08:00,69.4,42.7,29.92,West,275,4.0,5.0,38,0.00,,,0.00,Wunderground v.1.15,2013-11-09 00:08:00,
2013-11-08 16:14:00,68.6,42.6,29.92,SW,217,4.0,4.0,39,0.00,,,0.00,Wunderground v.1.15,2013-11-09 00:14:00,
2013-11-08 16:20:00,68.3,43.0,29.92,West,269,3.0,6.0,40,0.00,,,0.00,Wunderground v.1.15,2013-11-09 00:20:00,
2013-11-08 16:26:00,67.4,42.2,29.92,NW,307,2.0,3.0,40,0.00,,,0.00,Wunderground v.1.15,2013-11-09 00:26:00,
2013-11-08 16:32:00,66.6,42.8,29.92,ENE,67,1.0,3.0,42,0.00,,,0.00,Wunderground v.1.15,2013-11-09 00:32:00,
2013-11-08 16:38:00,65.6,41.9,29.92,ENE,60,2.0,4.0,42,0.00,,,0.00,Wunderground v.1.15,2013-11-09 00:38:00,
2013-11-08 16:44:00,65.2,42.1,29.92,ENE,60,1.0,1.0,43,0.00,,,0.00,Wunderground v.1.15,2013-11-09 00:44:00,
2013-11-08 16:50:00,64.3,40.7,29.92,NW,317,0.0,1.0,42,0.00,,,0.00,Wunderground v.1.15,2013-11-09 00:50:00,
2013-11-08 16:56:00,63.2,42.1,29.93,West,260,0.0,0.0,46,0.00,,,0.00,Wunderground v.1.15,2013-11-09 00:56:00,
2013-11-08 17:02:00,62.6,40.9,29.93,WSW,252,0.0,0.0,45,0.00,,,0.00,Wunderground v.1.15,2013-11-09 01:02:00,
2013-11-08 17:08:00,62.0,39.8,29.92,WSW,244,1.0,2.0,44,0.00,,,0.00,Wunderground v.1.15,2013-11-09 01:08:00,
2013-11-08 17:14:00,61.2,40.2,29.93,WSW,244,1.0,1.0,46,0.00,,,0.00,Wunderground v.1.15,2013-11-09 01:14:00,
2013-11-08 17:20:00,60.4,38.9,29.93,WSW,244,0.0,1.0,45,0.00,,,0.00,Wunderground v.1.15,2013-11-09 01:20:00,
2013-11-08 17:26:00,59.5,39.8,29.93,WSW,244,0.0,0.0,48,0.00,,,0.00,Wunderground v.1.15,2013-11-09 01:26:00,
2013-11-08 17:32:00,58.6,39.5,29.93,WSW,244,0.0,0.0,49,0.00,,,0.00,Wunderground v.1.15,2013-11-09 01:32:00,
2013-11-08 17:38:00,58.0,38.9,29.93,WSW,244,0.0,0.0,49,0.00,,,0.00,Wunderground v.1.15,2013-11-09 01:38:00,
2013-11-08 17:44:00,57.0,38.0,29.93,WSW,253,0.0,0.0,49,0.00,,,0.00,Wunderground v.1.15,2013-11-09 01:44:00,
2013-11-08 17:50:00,56.5,38.1,29.93,WSW,250,0.0,1.0,50,0.00,,,0.00,Wunderground v.1.15,2013-11-09 01:50:00,
2013-11-08 17:56:00,55.9,39.0,29.93,SSE,161,0.0,0.0,53,0.00,,,0.00,Wunderground v.1.15,2013-11-09 01:56:00,
2013-11-08 18:02:00,54.8,38.9,29.94,SSE,161,0.0,0.0,55,0.00,,,0.00,Wunderground v.1.15,2013-11-09 02:02:00,
2013-11-08 18:08:00,54.2,37.9,29.94,SSE,161,0.0,0.0,54,0.00,,,0.00,Wunderground v.1.15,2013-11-09 02:08:00,
2013-11-08 18:14:00,53.9,37.1,29.94,SSE,160,0.0,0.0,53,0.00,,,0.00,Wunderground v.1.15,2013-11-09 02:14:00,
2013-11-08 18:20:00,53.5,37.7,29.94,SSE,161,0.0,0.0,55,0.00,,,0.00,Wunderground v.1.15,2013-11-09 02:20:00,
2013-11-08 18:26:00,53.1,37.3,29.94,SSE,161,0.0,0.0,55,0.00,,,0.00,Wunderground v.1.15,2013-11-09 02:26:00,
2013-11-08 18:32:00,52.5,37.2,29.94,SSE,161,0.0,0.0,56,0.00,,,0.00,Wunderground v.1.15,2013-11-09 02:32:00,
2013-11-08 18:38:00,51.4,37.1,29.94,SSE,161,0.0,0.0,58,0.00,,,0.00,Wunderground v.1.15,2013-11-09 02:38:00,
2013-11-08 18:44:00,50.4,36.2,29.95,SSE,161,0.0,0.0,58,0.00,,,0.00,Wunderground v.1.15,2013-11-09 02:44:00,
2013-11-08 18:50:00,49.9,36.1,29.94,SSE,161,0.0,0.0,59,0.00,,,0.00,Wunderground v.1.15,2013-11-09 02:50:00,
2013-11-08 18:56:00,49.5,36.2,29.94,SSE,161,0.0,0.0,60,0.00,,,0.00,Wunderground v.1.15,2013-11-09 02:56:00,
2013-11-08 19:02:00,49.1,36.6,29.94,SSE,161,0.0,0.0,62,0.00,,,0.00,Wunderground v.1.15,2013-11-09 03:02:00,
2013-11-08 19:08:00,48.3,36.3,29.94,SSE,161,0.0,0.0,63,0.00,,,0.00,Wunderground v.1.15,2013-11-09 03:08:00,
2013-11-08 19:14:00,47.7,36.1,29.94,SSE,161,0.0,0.0,64,0.00,,,0.00,Wunderground v.1.15,2013-11-09 03:14:00,
2013-11-08 19:20:00,47.3,35.7,29.94,SSE,161,0.0,0.0,64,0.00,,,0.00,Wunderground v.1.15,2013-11-09 03:20:00,
2013-11-08 19:26:00,46.7,35.6,29.94,SSE,161,0.0,0.0,65,0.00,,,0.00,Wunderground v.1.15,2013-11-09 03:26:00,
2013-11-08 19:32:00,46.2,35.5,29.94,SSE,161,0.0,0.0,66,0.00,,,0.00,Wunderground v.1.15,2013-11-09 03:32:00,
2013-11-08 19:38:00,45.7,35.0,29.94,SSE,161,0.0,0.0,66,0.00,,,0.00,Wunderground v.1.15,2013-11-09 03:38:00,
2013-11-08 19:44:00,45.2,34.1,29.94,SSE,161,0.0,0.0,65,0.00,,,0.00,Wunderground v.1.15,2013-11-09 03:44:00,
2013-11-08 19:50:00,44.6,34.3,29.94,SSE,161,0.0,0.0,67,0.00,,,0.00,Wunderground v.1.15,2013-11-09 03:50:00,
2013-11-08 19:56:00,44.2,34.3,29.94,SSE,161,0.0,0.0,68,0.00,,,0.00,Wunderground v.1.15,2013-11-09 03:56:00,
2013-11-08 20:00:00,42.9,36.2,29.94,SSE,161,0.0,0.0,77,0.00,,,0.00,Wunderground v.1.15,2013-11-09 04:00:00,
2013-11-08 20:02:00,43.9,34.7,29.94,SSE,161,0.0,0.0,70,0.00,,,0.00,Wunderground v.1.15,2013-11-09 04:02:00,
2013-11-08 20:04:00,42.9,36.5,29.95,SSE,161,0.0,0.0,78,0.00,,,0.00,Wunderground v.1.15,2013-11-09 04:04:00,
2013-11-08 20:06:00,42.9,36.5,29.95,SSE,161,0.0,0.0,78,0.00,,,0.00,Wunderground v.1.15,2013-11-09 04:06:00,
2013-11-08 20:08:00,43.8,34.3,29.94,SSE,161,0.0,0.0,69,0.00,,,0.00,Wunderground v.1.15,2013-11-09 04:08:00,
2013-11-08 20:10:00,42.9,37.2,29.95,SSE,161,0.0,0.0,80,0.00,,,0.00,Wunderground v.1.15,2013-11-09 04:10:00,
2013-11-08 20:12:00,42.8,37.1,29.95,SSE,161,0.0,0.0,80,0.00,,,0.00,Wunderground v.1.15,2013-11-09 04:12:00,
2013-11-08 20:14:00,43.3,34.2,29.94,SSE,161,0.0,0.0,70,0.00,,,0.00,Wunderground v.1.15,2013-11-09 04:14:00,
2013-11-08 20:16:00,42.6,36.5,29.95,SSE,161,0.0,0.0,79,0.00,,,0.00,Wunderground v.1.15,2013-11-09 04:16:00,
2013-11-08 20:18:00,42.6,36.9,29.95,SSE,161,0.0,0.0,80,0.00,,,0.00,Wunderground v.1.15,2013-11-09 04:18:00,
2013-11-08 20:20:00,43.2,34.8,29.94,SSE,161,0.0,0.0,72,0.00,,,0.00,Wunderground v.1.15,2013-11-09 04:20:00,
2013-11-08 20:22:00,42.6,36.9,29.95,SSE,161,0.0,0.0,80,0.00,,,0.00,Wunderground v.1.15,2013-11-09 04:22:00,
2013-11-08 20:24:00,42.6,36.9,29.95,SSE,161,0.0,0.0,80,0.00,,,0.00,Wunderground v.1.15,2013-11-09 04:24:00,
2013-11-08 20:26:00,43.1,34.3,29.94,SSE,161,0.0,0.0,71,0.00,,,0.00,Wunderground v.1.15,2013-11-09 04:26:00,
2013-11-08 20:28:00,42.3,36.3,29.95,SSE,161,0.0,0.0,79,0.00,,,0.00,Wunderground v.1.15,2013-11-09 04:28:00,
2013-11-08 20:30:00,42.2,36.2,29.95,SSE,161,0.0,0.0,79,0.00,,,0.00,Wunderground v.1.15,2013-11-09 04:30:00,
2013-11-08 20:32:00,43.1,34.3,29.94,SSE,161,0.0,0.0,71,0.00,,,0.00,Wunderground v.1.15,2013-11-09 04:32:00,
2013-11-08 20:34:00,41.9,35.5,29.96,SSE,161,0.0,0.0,78,0.00,,,0.00,Wunderground v.1.15,2013-11-09 04:34:00,
2013-11-08 20:36:00,41.8,35.4,29.96,SSE,161,0.0,0.0,78,0.00,,,0.00,Wunderground v.1.15,2013-11-09 04:36:00,
2013-11-08 20:38:00,42.9,34.8,29.94,SSE,161,0.0,0.0,73,0.00,,,0.00,Wunderground v.1.15,2013-11-09 04:38:00,
2013-11-08 20:40:00,41.6,36.2,29.96,SSE,161,0.0,0.0,81,0.00,,,0.00,Wunderground v.1.15,2013-11-09 04:40:00,
2013-11-08 20:42:00,41.6,36.2,29.95,SSE,161,0.0,0.0,81,0.00,,,0.00,Wunderground v.1.15,2013-11-09 04:42:00,
2013-11-08 20:44:00,43.1,35.4,29.94,SSE,161,0.0,0.0,74,0.00,,,0.00,Wunderground v.1.15,2013-11-09 04:44:00,
2013-11-08 20:46:00,41.3,35.9,29.95,SSE,161,0.0,0.0,81,0.00,,,0.00,Wunderground v.1.15,2013-11-09 04:46:00,
2013-11-08 20:48:00,41.2,35.5,29.96,SSE,161,0.0,0.0,80,0.00,,,0.00,Wunderground v.1.15,2013-11-09 04:48:00,
2013-11-08 20:50:00,43.1,35.4,29.95,SSE,161,0.0,0.0,74,0.00,,,0.00,Wunderground v.1.15,2013-11-09 04:50:00,
2013-11-08 20:52:00,41.1,35.7,29.95,SSE,161,0.0,0.0,81,0.00,,,0.00,Wunderground v.1.15,2013-11-09 04:52:00,
2013-11-08 20:54:00,40.9,35.2,29.95,SSE,161,0.0,0.0,80,0.00,,,0.00,Wunderground v.1.15,2013-11-09 04:54:00,
2013-11-08 20:56:00,42.9,35.5,29.94,SSE,161,0.0,0.0,75,0.00,,,0.00,Wunderground v.1.15,2013-11-09 04:56:00,
2013-11-08 20:58:00,40.3,34.3,29.95,SSE,161,0.0,0.0,79,0.00,,,0.00,Wunderground v.1.15,2013-11-09 04:58:00,
2013-11-08 21:00:00,40.2,34.2,29.95,SSE,161,0.0,0.0,79,0.00,,,0.00,Wunderground v.1.15,2013-11-09 05:00:00,
2013-11-08 21:02:00,40.1,34.4,29.95,SSE,161,0.0,0.0,80,0.00,,,0.00,Wunderground v.1.15,2013-11-09 05:02:00,
2013-11-08 21:04:00,39.9,34.2,29.95,SSE,161,0.0,0.0,80,0.00,,,0.00,Wunderground v.1.15,2013-11-09 05:04:00,
2013-11-08 21:06:00,39.6,33.6,29.95,SSE,161,0.0,0.0,79,0.00,,,0.00,Wunderground v.1.15,2013-11-09 05:06:00,
2013-11-08 21:08:00,39.5,33.5,29.95,SSE,161,0.0,0.0,79,0.00,,,0.00,Wunderground v.1.15,2013-11-09 05:08:00,
2013-11-08 21:10:00,39.3,34.0,29.95,SSE,161,0.0,0.0,81,0.00,,,0.00,Wunderground v.1.15,2013-11-09 05:10:00,
2013-11-08 21:12:00,39.2,33.9,29.95,SSE,161,0.0,0.0,81,0.00,,,0.00,Wunderground v.1.15,2013-11-09 05:12:00,
2013-11-08 21:14:00,38.9,33.6,29.95,SSE,161,0.0,0.0,81,0.00,,,0.00,Wunderground v.1.15,2013-11-09 05:14:00,
2013-11-08 21:16:00,38.8,33.5,29.95,SSE,161,0.0,0.0,81,0.00,,,0.00,Wunderground v.1.15,2013-11-09 05:16:00,
2013-11-08 21:18:00,38.6,33.3,29.95,SSE,161,0.0,0.0,81,0.00,,,0.00,Wunderground v.1.15,2013-11-09 05:18:00,
2013-11-08 21:20:00,38.5,33.2,29.95,SSE,161,0.0,0.0,81,0.00,,,0.00,Wunderground v.1.15,2013-11-09 05:20:00,
2013-11-08 21:22:00,38.3,33.3,29.95,SSE,161,0.0,0.0,82,0.00,,,0.00,Wunderground v.1.15,2013-11-09 05:22:00,
2013-11-08 21:24:00,38.2,33.2,29.95,SSE,161,0.0,0.0,82,0.00,,,0.00,Wunderground v.1.15,2013-11-09 05:24:00,
2013-11-08 21:26:00,38.2,33.2,29.95,SSE,161,0.0,0.0,82,0.00,,,0.00,Wunderground v.1.15,2013-11-09 05:26:00,
2013-11-08 21:28:00,38.0,33.0,29.95,SSE,161,0.0,0.0,82,0.00,,,0.00,Wunderground v.1.15,2013-11-09 05:28:00,
2013-11-08 21:30:00,38.0,33.0,29.95,SSE,161,0.0,0.0,82,0.00,,,0.00,Wunderground v.1.15,2013-11-09 05:30:00,
2013-11-08 21:32:00,37.9,32.9,29.95,SSE,161,0.0,0.0,82,0.00,,,0.00,Wunderground v.1.15,2013-11-09 05:32:00,
2013-11-08 21:34:00,37.9,33.2,29.95,SSE,161,0.0,0.0,83,0.00,,,0.00,Wunderground v.1.15,2013-11-09 05:34:00,
2013-11-08 21:36:00,37.9,33.2,29.95,SSE,161,0.0,0.0,83,0.00,,,0.00,Wunderground v.1.15,2013-11-09 05:36:00,
2013-11-08 21:38:00,37.9,33.2,29.95,SSE,161,0.0,0.0,83,0.00,,,0.00,Wunderground v.1.15,2013-11-09 05:38:00,
2013-11-08 21:40:00,37.9,33.5,29.95,SSE,161,0.0,0.0,84,0.00,,,0.00,Wunderground v.1.15,2013-11-09 05:40:00,
2013-11-08 21:42:00,37.8,33.4,29.96,SSE,161,0.0,0.0,84,0.00,,,0.00,Wunderground v.1.15,2013-11-09 05:42:00,
2013-11-08 21:44:00,37.8,33.4,29.96,SSE,161,0.0,0.0,84,0.00,,,0.00,Wunderground v.1.15,2013-11-09 05:44:00,
2013-11-08 21:46:00,37.8,33.4,29.96,SSE,161,0.0,0.0,84,0.00,,,0.00,Wunderground v.1.15,2013-11-09 05:46:00,
2013-11-08 21:48:00,37.8,33.4,29.96,SSE,161,0.0,0.0,84,0.00,,,0.00,Wunderground v.1.15,2013-11-09 05:48:00,
2013-11-08 21:50:00,37.8,33.4,29.96,SSE,161,0.0,0.0,84,0.00,,,0.00,Wunderground v.1.15,2013-11-09 05:50:00,
2013-11-08 21:52:00,37.8,33.7,29.96,SSE,161,0.0,0.0,85,0.00,,,0.00,Wunderground v.1.15,2013-11-09 05:52:00,
2013-11-08 21:54:00,37.6,33.2,29.96,SSE,161,0.0,0.0,84,0.00,,,0.00,Wunderground v.1.15,2013-11-09 05:54:00,
2013-11-08 21:56:00,37.6,33.2,29.96,SSE,161,0.0,0.0,84,0.00,,,0.00,Wunderground v.1.15,2013-11-09 05:56:00,
2013-11-08 21:58:00,37.6,33.2,29.95,SSE,161,0.0,0.0,84,0.00,,,0.00,Wunderground v.1.15,2013-11-09 05:58:00,
2013-11-08 22:04:00,37.2,32.5,29.95,SSE,161,0.0,0.0,83,0.00,,,0.00,Wunderground v.1.15,2013-11-09 06:04:00,
2013-11-08 22:06:00,37.0,32.6,29.96,SSE,161,0.0,0.0,84,0.00,,,0.00,Wunderground v.1.15,2013-11-09 06:06:00,
2013-11-08 22:08:00,36.9,32.5,29.95,SSE,161,0.0,0.0,84,0.00,,,0.00,Wunderground v.1.15,2013-11-09 06:08:00,
2013-11-08 22:16:00,36.5,32.4,29.95,SSE,161,0.0,0.0,85,0.00,,,0.00,Wunderground v.1.15,2013-11-09 06:16:00,
2013-11-08 22:20:00,36.3,32.2,29.95,SSE,161,0.0,0.0,85,0.00,,,0.00,Wunderground v.1.15,2013-11-09 06:20:00,
2013-11-08 22:22:00,36.3,32.2,29.95,SSE,161,0.0,0.0,85,0.00,,,0.00,Wunderground v.1.15,2013-11-09 06:22:00,
2013-11-08 22:26:00,36.3,32.5,29.95,SSE,161,0.0,0.0,86,0.00,,,0.00,Wunderground v.1.15,2013-11-09 06:26:00,
2013-11-08 22:28:00,36.3,32.5,29.95,SSE,161,0.0,0.0,86,0.00,,,0.00,Wunderground v.1.15,2013-11-09 06:28:00,
2013-11-08 22:30:00,36.2,32.1,29.96,SSE,161,0.0,0.0,85,0.00,,,0.00,Wunderground v.1.15,2013-11-09 06:30:00,
2013-11-08 22:34:00,36.0,31.9,29.96,SSE,161,0.0,0.0,85,0.00,,,0.00,Wunderground v.1.15,2013-11-09 06:34:00,
2013-11-08 22:36:00,35.9,31.8,29.96,SSE,161,0.0,0.0,85,0.00,,,0.00,Wunderground v.1.15,2013-11-09 06:36:00,
2013-11-08 22:38:00,35.9,31.8,29.96,SSE,161,0.0,0.0,85,0.00,,,0.00,Wunderground v.1.15,2013-11-09 06:38:00,
2013-11-08 22:42:00,35.8,31.7,29.95,SSE,161,0.0,0.0,85,0.00,,,0.00,Wunderground v.1.15,2013-11-09 06:42:00,
2013-11-08 22:48:00,35.6,31.8,29.95,SSE,161,0.0,0.0,86,0.00,,,0.00,Wunderground v.1.15,2013-11-09 06:48:00,
2013-11-08 22:50:00,35.6,31.8,29.95,SSE,161,0.0,0.0,86,0.00,,,0.00,Wunderground v.1.15,2013-11-09 06:50:00,
2013-11-08 22:52:00,35.6,31.8,29.95,SSE,161,0.0,0.0,86,0.00,,,0.00,Wunderground v.1.15,2013-11-09 06:52:00,
2013-11-08 22:58:00,35.5,31.7,29.95,SSE,161,0.0,0.0,86,0.00,,,0.00,Wunderground v.1.15,2013-11-09 06:58:00,
2013-11-08 23:00:00,35.5,31.7,29.95,SSE,161,0.0,0.0,86,0.00,,,0.00,Wunderground v.1.15,2013-11-09 07:00:00,
2013-11-08 23:02:00,37.5,33.1,29.95,SSE,161,0.0,0.0,84,0.00,,,0.00,Wunderground v.1.15,2013-11-09 07:02:00,
2013-11-08 23:04:00,35.5,31.7,29.95,SSE,161,0.0,0.0,86,0.00,,,0.00,Wunderground v.1.15,2013-11-09 07:04:00,
2013-11-08 23:06:00,35.3,31.5,29.95,SSE,161,0.0,0.0,86,0.00,,,0.00,Wunderground v.1.15,2013-11-09 07:06:00,
2013-11-08 23:08:00,35.3,31.5,29.95,SSE,161,0.0,0.0,86,0.00,,,0.00,Wunderground v.1.15,2013-11-09 07:08:00,
2013-11-08 23:10:00,35.3,31.8,29.95,SSE,161,0.0,0.0,87,0.00,,,0.00,Wunderground v.1.15,2013-11-09 07:10:00,
2013-11-08 23:12:00,36.8,32.7,29.95,SSE,161,0.0,0.0,85,0.00,,,0.00,Wunderground v.1.15,2013-11-09 07:12:00,
2013-11-08 23:14:00,35.2,31.7,29.96,SSE,161,0.0,0.0,87,0.00,,,0.00,Wunderground v.1.15,2013-11-09 07:14:00,
2013-11-08 23:16:00,35.0,31.5,29.96,SSE,161,0.0,0.0,87,0.00,,,0.00,Wunderground v.1.15,2013-11-09 07:16:00,
2013-11-08 23:18:00,34.9,31.1,29.96,SSE,161,0.0,0.0,86,0.00,,,0.00,Wunderground v.1.15,2013-11-09 07:18:00,
2013-11-08 23:20:00,36.5,32.4,29.95,SSE,161,0.0,0.0,85,0.00,,,0.00,Wunderground v.1.15,2013-11-09 07:20:00,
2013-11-08 23:22:00,34.7,30.9,29.96,SSE,161,0.0,0.0,86,0.00,,,0.00,Wunderground v.1.15,2013-11-09 07:22:00,
2013-11-08 23:24:00,34.6,30.8,29.96,SSE,161,0.0,0.0,86,0.00,,,0.00,Wunderground v.1.15,2013-11-09 07:24:00,
2013-11-08 23:26:00,36.3,32.5,29.95,SSE,161,0.0,0.0,86,0.00,,,0.00,Wunderground v.1.15,2013-11-09 07:26:00,
2013-11-08 23:30:00,34.6,31.1,29.96,SSE,161,0.0,0.0,87,0.00,,,0.00,Wunderground v.1.15,2013-11-09 07:30:00,
2013-11-08 23:32:00,34.6,31.1,29.97,SSE,161,0.0,0.0,87,0.00,,,0.00,Wunderground v.1.15,2013-11-09 07:32:00,
2013-11-08 23:34:00,36.2,32.1,29.96,SSE,161,0.0,0.0,85,0.00,,,0.00,Wunderground v.1.15,2013-11-09 07:34:00,
2013-11-08 23:36:00,34.6,31.4,29.96,SSE,161,0.0,0.0,88,0.00,,,0.00,Wunderground v.1.15,2013-11-09 07:36:00,
2013-11-08 23:38:00,34.6,31.4,29.97,SSE,161,0.0,0.0,88,0.00,,,0.00,Wunderground v.1.15,2013-11-09 07:38:00,
2013-11-08 23:40:00,34.6,31.1,29.97,SSE,161,0.0,0.0,87,0.00,,,0.00,Wunderground v.1.15,2013-11-09 07:40:00,
2013-11-08 23:42:00,35.8,31.7,29.96,SSE,161,0.0,0.0,85,0.00,,,0.00,Wunderground v.1.15,2013-11-09 07:42:00,
2013-11-08 23:44:00,34.4,30.9,29.97,SSE,161,0.0,0.0,87,0.00,,,0.00,Wunderground v.1.15,2013-11-09 07:44:00,
2013-11-08 23:46:00,34.3,30.8,29.97,SSE,161,0.0,0.0,87,0.00,,,0.00,Wunderground v.1.15,2013-11-09 07:46:00,
2013-11-08 23:48:00,35.8,32.0,29.95,SSE,161,0.0,0.0,86,0.00,,,0.00,Wunderground v.1.15,2013-11-09 07:48:00,
2013-11-08 23:56:00,35.6,31.8,29.95,SSE,161,0.0,0.0,86,0.00,,,0.00,Wunderground v.1.15,2013-11-09 07:56:00,